Time;durP1;ratioP1;P1;durP2;ratioP2;P2;SDS_P1;SDS_P2;PMS_P1;PMS_P2;Temp;Humidity;BMP_temperature;BMP_pressure;BME280_temperature;BME280_humidity;BME280_pressure;Samples;Min_cycle;Max_cycle;Signal;HPM_P1;HPM_P2
2024/01/11 00:00:35;;;;;;;57.20;25.17;;;4.20;96.70;;;;;;5107365;28;20047;-58
2024/01/11 00:03:01;;;;;;;58.85;25.40;;;4.20;96.70;;;;;;5107371;28;20028;-58
2024/01/11 00:05:27;;;;;;;63.47;25.08;;;4.30;96.80;;;;;;5107496;28;20463;-59
2024/01/11 00:07:52;;;;;;;51.60;24.77;;;4.20;96.80;;;;;;5107419;28;20472;-58
2024/01/11 00:10:18;;;;;;;60.90;23.65;;;4.20;96.80;;;;;;5089279;28;20062;-59
2024/01/11 00:12:43;;;;;;;51.00;23.45;;;4.20;97.00;;;;;;5106710;28;20021;-59
2024/01/11 00:15:09;;;;;;;54.40;23.15;;;4.20;96.80;;;;;;5107232;28;20032;-59
2024/01/11 00:17:35;;;;;;;47.95;22.98;;;4.20;96.80;;;;;;5107344;28;20027;-58
2024/01/11 00:20:01;;;;;;;53.95;25.05;;;4.20;96.80;;;;;;5107306;28;20054;-58
2024/01/11 00:22:27;;;;;;;55.60;23.85;;;4.20;96.70;;;;;;5088975;28;20539;-59
2024/01/11 00:24:52;;;;;;;54.67;22.70;;;4.20;96.70;;;;;;5089148;28;20075;-58
2024/01/11 00:27:18;;;;;;;51.17;23.90;;;4.20;96.70;;;;;;5107139;28;20024;-58
2024/01/11 00:29:44;;;;;;;54.42;23.85;;;4.20;96.70;;;;;;5107174;28;20084;-58
2024/01/11 00:32:09;;;;;;;51.78;22.95;;;4.20;96.70;;;;;;5107092;28;20028;-59
2024/01/11 00:34:35;;;;;;;53.72;24.23;;;4.20;96.70;;;;;;5107089;28;20051;-58
2024/01/11 00:37:01;;;;;;;61.97;24.38;;;4.10;96.70;;;;;;5106979;28;20028;-58
2024/01/11 00:39:27;;;;;;;44.28;21.42;;;4.20;96.70;;;;;;5107011;28;20020;-57
2024/01/11 00:41:52;;;;;;;51.92;24.02;;;4.10;96.70;;;;;;5107230;28;20032;-58
2024/01/11 00:44:18;;;;;;;48.38;23.30;;;4.10;96.70;;;;;;5107608;28;20118;-59
2024/01/11 00:46:45;;;;;;;45.92;21.73;;;4.10;96.70;;;;;;5106788;28;20074;-58
2024/01/11 00:49:10;;;;;;;47.88;22.40;;;4.10;96.70;;;;;;5105382;28;20028;-58
2024/01/11 00:51:36;;;;;;;45.08;23.42;;;4.10;96.70;;;;;;5106675;28;20036;-59
2024/01/11 00:54:01;;;;;;;45.88;22.27;;;4.10;96.70;;;;;;5106858;28;20028;-58
2024/01/11 00:56:27;;;;;;;45.55;22.85;;;4.10;96.70;;;;;;5106647;28;20206;-59
2024/01/11 00:58:53;;;;;;;47.25;21.20;;;4.10;96.70;;;;;;5106889;28;20020;-58
2024/01/11 01:01:18;;;;;;;51.92;23.73;;;4.10;96.70;;;;;;5088557;28;20480;-58
2024/01/11 01:03:44;;;;;;;48.53;22.23;;;4.10;96.70;;;;;;5106459;28;20056;-58
2024/01/11 01:06:09;;;;;;;51.97;22.23;;;4.00;96.70;;;;;;5105641;28;20039;-57
2024/01/11 01:08:35;;;;;;;45.58;22.33;;;4.10;96.80;;;;;;5105956;28;20059;-59
2024/01/11 01:11:00;;;;;;;41.03;21.45;;;4.00;96.80;;;;;;5088185;28;20525;-58
2024/01/11 01:13:26;;;;;;;42.80;21.65;;;4.00;96.80;;;;;;5088411;28;20028;-58
2024/01/11 01:15:51;;;;;;;42.67;21.73;;;4.00;96.80;;;;;;5106395;28;20024;-59
2024/01/11 01:18:17;;;;;;;51.42;23.55;;;4.00;96.80;;;;;;5106268;28;20032;-58
2024/01/11 01:20:43;;;;;;;47.25;22.27;;;4.10;96.80;;;;;;5105057;28;20035;-59
2024/01/11 01:23:08;;;;;;;49.83;20.90;;;4.00;96.80;;;;;;5106339;28;20048;-59
2024/01/11 01:25:34;;;;;;;49.85;21.83;;;4.10;96.70;;;;;;5106390;28;20032;-58
2024/01/11 01:28:00;;;;;;;46.53;21.73;;;4.00;96.70;;;;;;5088358;28;20031;-58
2024/01/11 01:30:26;;;;;;;51.05;21.73;;;4.00;96.70;;;;;;5106172;28;20024;-59
2024/01/11 01:32:52;;;;;;;47.25;22.15;;;4.00;96.70;;;;;;5106367;28;20109;-58
2024/01/11 01:35:18;;;;;;;43.22;20.77;;;4.00;96.70;;;;;;5106020;28;20035;-58
2024/01/11 01:37:43;;;;;;;41.78;21.90;;;4.00;96.70;;;;;;5105987;28;20024;-58
2024/01/11 01:40:09;;;;;;;50.05;22.55;;;4.00;96.70;;;;;;5106215;28;20028;-58
2024/01/11 01:42:35;;;;;;;49.42;22.80;;;4.00;96.80;;;;;;5088215;28;20028;-58
2024/01/11 01:45:00;;;;;;;47.78;23.30;;;4.00;96.80;;;;;;5106523;28;20054;-59
2024/01/11 01:47:27;;;;;;;45.45;21.90;;;4.00;96.80;;;;;;5106792;28;20024;-58
2024/01/11 01:49:52;;;;;;;40.58;21.83;;;4.00;96.80;;;;;;5088389;28;20054;-59
2024/01/11 01:52:18;;;;;;;39.10;22.10;;;4.00;96.80;;;;;;5088427;28;20029;-58
2024/01/11 01:54:43;;;;;;;46.35;21.40;;;4.00;96.80;;;;;;5088029;28;20044;-59
2024/01/11 01:57:09;;;;;;;44.45;22.83;;;4.00;96.80;;;;;;5104813;28;20491;-58
2024/01/11 01:59:35;;;;;;;39.70;21.48;;;4.00;96.80;;;;;;5105956;28;20028;-58
2024/01/11 02:02:00;;;;;;;40.58;21.95;;;4.00;96.70;;;;;;5087919;28;20419;-58
2024/01/11 02:04:26;;;;;;;43.33;21.13;;;3.90;96.70;;;;;;5105619;28;20111;-59
2024/01/11 02:06:52;;;;;;;44.15;22.67;;;4.00;96.70;;;;;;5105808;28;20096;-59
2024/01/11 02:09:17;;;;;;;41.83;21.48;;;4.00;96.80;;;;;;5104477;28;20081;-59
2024/01/11 02:11:44;;;;;;;39.63;21.88;;;3.90;96.80;;;;;;5105665;28;20078;-58
2024/01/11 02:14:10;;;;;;;43.97;22.42;;;3.90;96.80;;;;;;5105995;28;20448;-58
2024/01/11 02:16:36;;;;;;;42.95;22.02;;;4.00;96.80;;;;;;5105754;28;20028;-59
2024/01/11 02:19:01;;;;;;;38.22;20.75;;;3.90;96.80;;;;;;5090164;28;20016;-58
2024/01/11 02:21:27;;;;;;;39.88;21.02;;;4.00;96.80;;;;;;5109259;28;20032;-58
2024/01/11 02:24:05;;;;;;;40.42;21.88;;;4.00;96.80;;;;;;5109455;28;20035;-59
2024/01/11 02:26:31;;;;;;;40.05;22.48;;;3.90;96.70;;;;;;5091306;28;20502;-58
2024/01/11 02:28:56;;;;;;;42.33;22.33;;;3.90;96.70;;;;;;5109383;28;20036;-58
2024/01/11 02:31:22;;;;;;;43.95;21.55;;;3.90;96.80;;;;;;5108757;28;20032;-59
2024/01/11 02:33:47;;;;;;;45.60;22.08;;;3.90;96.80;;;;;;5109130;28;20027;-59
2024/01/11 02:36:13;;;;;;;39.40;22.55;;;3.90;96.80;;;;;;5091143;28;20054;-59
2024/01/11 02:38:39;;;;;;;41.10;22.02;;;3.90;96.80;;;;;;5109197;28;20046;-58
2024/01/11 02:41:05;;;;;;;40.78;22.23;;;3.90;96.80;;;;;;5091006;28;20027;-58
2024/01/11 02:43:30;;;;;;;40.47;21.77;;;3.90;96.80;;;;;;5109082;28;20440;-59
2024/01/11 02:45:56;;;;;;;39.35;21.98;;;3.90;96.80;;;;;;5108916;28;20062;-58
2024/01/11 02:48:22;;;;;;;39.25;22.42;;;3.90;96.80;;;;;;5109066;28;20028;-59
2024/01/11 02:50:50;;;;;;;42.63;21.75;;;3.90;96.90;;;;;;5108455;28;20047;-59
2024/01/11 02:53:16;;;;;;;38.90;20.92;;;3.90;96.80;;;;;;5108716;28;20472;-58
2024/01/11 02:55:41;;;;;;;41.80;21.40;;;3.90;96.80;;;;;;5109189;28;20035;-59
2024/01/11 02:58:07;;;;;;;37.42;21.52;;;3.90;96.80;;;;;;5108806;28;20039;-59
2024/01/11 03:00:32;;;;;;;42.25;22.05;;;3.90;96.80;;;;;;5108855;28;20028;-58
2024/01/11 03:02:58;;;;;;;39.97;22.20;;;3.90;96.80;;;;;;5108912;28;20024;-58
2024/01/11 03:05:23;;;;;;;41.35;20.63;;;3.90;96.80;;;;;;5108758;28;20029;-59
2024/01/11 03:07:49;;;;;;;39.60;21.85;;;3.90;96.80;;;;;;5108535;28;20024;-58
2024/01/11 03:10:14;;;;;;;39.60;22.08;;;3.90;96.70;;;;;;5108446;28;20058;-59
2024/01/11 03:12:40;;;;;;;38.08;20.58;;;3.80;96.70;;;;;;5108591;28;20020;-58
2024/01/11 03:15:06;;;;;;;38.72;21.80;;;3.90;96.80;;;;;;5108454;28;20084;-58
2024/01/11 03:17:33;;;;;;;42.90;22.05;;;3.80;96.80;;;;;;5108432;28;20021;-59
2024/01/11 03:19:59;;;;;;;39.58;21.92;;;3.80;96.80;;;;;;5109053;28;20115;-58
2024/01/11 03:22:25;;;;;;;37.03;21.20;;;3.80;96.80;;;;;;5109181;28;20388;-59
2024/01/11 03:24:50;;;;;;;37.45;20.08;;;3.80;96.80;;;;;;5108289;28;20020;-59
2024/01/11 03:27:16;;;;;;;38.25;21.90;;;3.80;97.10;;;;;;5090057;28;20036;-58
2024/01/11 03:29:42;;;;;;;38.42;21.67;;;3.80;96.80;;;;;;5107191;28;20020;-58
2024/01/11 03:32:07;;;;;;;39.40;21.25;;;3.80;96.80;;;;;;5107909;28;20043;-58
2024/01/11 03:34:33;;;;;;;37.97;22.27;;;3.80;96.80;;;;;;5089978;28;20032;-58
2024/01/11 03:36:58;;;;;;;38.08;20.60;;;3.80;96.80;;;;;;5108166;28;20028;-59
2024/01/11 03:39:25;;;;;;;44.55;21.02;;;3.80;96.80;;;;;;5108175;28;20056;-58
2024/01/11 03:41:50;;;;;;;40.00;21.98;;;3.80;96.70;;;;;;5108271;28;20032;-59
2024/01/11 03:44:16;;;;;;;39.47;21.63;;;3.70;96.70;;;;;;5108602;28;20036;-58
2024/01/11 03:46:41;;;;;;;33.95;19.90;;;3.80;96.80;;;;;;5108478;28;20055;-59
2024/01/11 03:49:10;;;;;;;38.03;21.23;;;3.80;96.80;;;;;;5107910;28;20107;-58
2024/01/11 03:51:36;;;;;;;33.88;20.25;;;3.70;96.70;;;;;;5107638;28;20055;-58
2024/01/11 03:54:01;;;;;;;35.17;20.27;;;3.70;96.70;;;;;;5108008;28;20102;-58
2024/01/11 03:56:27;;;;;;;34.50;19.92;;;3.80;96.80;;;;;;5107595;28;20040;-58
2024/01/11 03:58:52;;;;;;;36.97;21.25;;;3.70;96.80;;;;;;5089376;28;20054;-58
2024/01/11 04:01:19;;;;;;;34.03;20.20;;;3.70;96.80;;;;;;5107446;28;20031;-58
2024/01/11 04:03:44;;;;;;;34.70;21.00;;;3.70;96.80;;;;;;5089716;28;20038;-58
2024/01/11 04:06:21;;;;;;;35.97;20.77;;;3.70;96.70;;;;;;5107766;28;20063;-58
2024/01/11 04:08:48;;;;;;;40.47;20.83;;;3.80;96.80;;;;;;5107686;28;20038;-58
2024/01/11 04:11:20;;;;;;;36.28;20.70;;;3.80;96.70;;;;;;5089140;28;20573;-59
2024/01/11 04:13:45;;;;;;;36.58;21.17;;;3.70;96.70;;;;;;5089098;28;20476;-58
2024/01/11 04:16:11;;;;;;;39.75;20.95;;;3.70;96.70;;;;;;5107413;28;20020;-59
2024/01/11 04:18:37;;;;;;;31.88;20.02;;;3.70;96.70;;;;;;5089161;28;20103;-58
2024/01/11 04:21:02;;;;;;;37.10;20.67;;;3.70;96.70;;;;;;5089081;28;20032;-58
2024/01/11 04:23:28;;;;;;;39.40;21.27;;;3.70;96.70;;;;;;5107268;28;20035;-58
2024/01/11 04:25:53;;;;;;;34.55;20.55;;;3.70;96.70;;;;;;5107098;28;20043;-59
2024/01/11 04:28:19;;;;;;;32.05;19.50;;;3.70;96.70;;;;;;5088825;28;20051;-58
2024/01/11 04:30:44;;;;;;;34.35;20.60;;;3.70;96.80;;;;;;5107010;28;20054;-59
2024/01/11 04:33:10;;;;;;;36.47;21.00;;;3.70;96.80;;;;;;5106920;28;20036;-58
2024/01/11 04:35:36;;;;;;;34.95;20.10;;;3.70;96.80;;;;;;5106727;28;20100;-59
2024/01/11 04:38:02;;;;;;;32.72;21.45;;;3.70;96.80;;;;;;5088847;28;20027;-58
2024/01/11 04:40:27;;;;;;;34.72;20.27;;;3.70;96.80;;;;;;5107092;28;20020;-58
2024/01/11 04:42:53;;;;;;;35.00;21.48;;;3.70;96.80;;;;;;5107057;28;20057;-58
2024/01/11 04:45:19;;;;;;;36.03;19.60;;;3.70;96.70;;;;;;5106958;28;20050;-58
2024/01/11 04:47:44;;;;;;;35.33;19.90;;;3.70;96.70;;;;;;5106841;28;20016;-58
2024/01/11 04:50:10;;;;;;;33.72;21.83;;;3.70;96.80;;;;;;5106481;28;20105;-59
2024/01/11 04:52:35;;;;;;;30.85;19.08;;;3.70;96.70;;;;;;5106684;28;20032;-58
2024/01/11 04:55:01;;;;;;;36.75;21.33;;;3.70;96.70;;;;;;5106702;28;20030;-58
2024/01/11 04:57:27;;;;;;;33.97;20.40;;;3.70;96.70;;;;;;5106720;28;20020;-58
2024/01/11 04:59:53;;;;;;;31.85;20.42;;;3.70;96.70;;;;;;5106716;28;20553;-58
2024/01/11 05:02:20;;;;;;;32.45;20.60;;;3.70;96.70;;;;;;5106782;28;20031;-58
2024/01/11 05:04:46;;;;;;;36.25;20.63;;;3.70;96.70;;;;;;5106390;28;20032;-59
2024/01/11 05:07:12;;;;;;;35.72;21.50;;;3.70;96.70;;;;;;5106499;28;20024;-58
2024/01/11 05:09:38;;;;;;;39.80;21.00;;;3.60;96.70;;;;;;5106527;28;20032;-58
2024/01/11 05:12:04;;;;;;;33.33;20.45;;;3.60;96.70;;;;;;5088108;28;20032;-58
2024/01/11 05:14:30;;;;;;;38.28;21.45;;;3.70;96.70;;;;;;5106615;28;20032;-58
2024/01/11 05:16:55;;;;;;;33.47;20.15;;;3.60;96.70;;;;;;5106408;28;20028;-58
2024/01/11 05:19:21;;;;;;;32.58;19.98;;;3.60;96.70;;;;;;5106411;28;20092;-58
2024/01/11 05:21:47;;;;;;;34.70;20.27;;;3.70;96.70;;;;;;5106425;28;20032;-58
2024/01/11 05:24:12;;;;;;;31.40;19.00;;;3.70;96.60;;;;;;5088372;28;20068;-59
2024/01/11 05:26:38;;;;;;;31.15;20.10;;;3.70;96.60;;;;;;5106152;28;20051;-58
2024/01/11 05:29:04;;;;;;;32.90;20.08;;;3.70;96.60;;;;;;5106228;28;20096;-58
2024/01/11 05:31:30;;;;;;;34.53;20.92;;;3.70;96.60;;;;;;5106352;28;20028;-59
2024/01/11 05:33:55;;;;;;;39.58;20.42;;;3.70;96.60;;;;;;5105922;28;20034;-58
2024/01/11 05:36:21;;;;;;;34.75;21.13;;;3.70;96.60;;;;;;5106261;28;20036;-60
2024/01/11 05:38:47;;;;;;;31.70;19.42;;;3.70;96.60;;;;;;5106204;28;20103;-58
2024/01/11 05:41:12;;;;;;;33.80;20.52;;;3.70;96.60;;;;;;5106218;28;20032;-58
2024/01/11 05:43:42;;;;;;;38.83;21.02;;;3.70;96.60;;;;;;5106270;28;20047;-58
2024/01/11 05:46:08;;;;;;;38.80;21.13;;;3.70;96.70;;;;;;5106641;28;20036;-58
2024/01/11 05:48:33;;;;;;;46.33;23.17;;;3.70;96.70;;;;;;5106501;28;20031;-58
2024/01/11 05:50:59;;;;;;;50.90;22.67;;;3.70;96.70;;;;;;5106187;28;20032;-58
2024/01/11 05:53:27;;;;;;;42.53;20.08;;;3.70;96.80;;;;;;5107539;28;20023;-58
2024/01/11 05:55:53;;;;;;;42.10;20.25;;;3.70;96.80;;;;;;5110121;28;20031;-58
2024/01/11 05:58:18;;;;;;;55.58;21.77;;;3.70;96.80;;;;;;5091669;28;20076;-58
2024/01/11 06:00:44;;;;;;;49.85;21.42;;;3.70;96.80;;;;;;5109938;28;20039;-58
2024/01/11 06:03:12;;;;;;;52.80;22.15;;;3.70;96.80;;;;;;5109831;28;20035;-58
2024/01/11 06:05:37;;;;;;;46.97;21.75;;;3.70;96.80;;;;;;5109880;28;20052;-58
2024/01/11 06:08:03;;;;;;;41.95;21.27;;;3.80;96.90;;;;;;5109723;28;20475;-58
2024/01/11 06:10:30;;;;;;;52.35;22.05;;;3.70;96.80;;;;;;5109734;28;20111;-59
2024/01/11 06:12:56;;;;;;;52.38;21.83;;;3.70;96.80;;;;;;5109651;28;20095;-59
2024/01/11 06:15:22;;;;;;;48.80;21.88;;;3.70;96.90;;;;;;5109672;28;20028;-58
2024/01/11 06:17:47;;;;;;;62.00;22.95;;;3.80;97.00;;;;;;5109564;28;20028;-59
2024/01/11 06:20:13;;;;;;;84.35;24.05;;;3.80;97.20;;;;;;5109347;28;20034;-58
2024/01/11 06:22:38;;;;;;;67.60;23.70;;;3.80;97.40;;;;;;5109513;28;20028;-58
2024/01/11 06:25:04;;;;;;;65.65;22.73;;;3.80;97.40;;;;;;5109354;28;20036;-59
2024/01/11 06:27:30;;;;;;;52.75;22.70;;;3.80;97.30;;;;;;5091009;28;20081;-59
2024/01/11 06:29:55;;;;;;;47.25;21.98;;;3.80;97.30;;;;;;5109350;28;20035;-58
2024/01/11 06:32:21;;;;;;;58.40;22.77;;;3.80;97.30;;;;;;5108625;28;20024;-58
2024/01/11 06:34:47;;;;;;;56.45;21.92;;;3.80;97.30;;;;;;5107752;28;20032;-58
2024/01/11 06:37:13;;;;;;;57.70;24.15;;;3.80;97.40;;;;;;5108095;28;20050;-59
2024/01/11 06:39:38;;;;;;;58.80;23.65;;;3.80;97.30;;;;;;5109129;28;20024;-59
2024/01/11 06:42:04;;;;;;;55.05;23.08;;;3.80;97.40;;;;;;5109272;28;20031;-57
2024/01/11 06:44:30;;;;;;;59.53;22.98;;;3.80;97.40;;;;;;5109041;28;20043;-58
2024/01/11 06:46:56;;;;;;;67.60;23.40;;;3.80;97.50;;;;;;5108875;28;20395;-58
2024/01/11 06:49:21;;;;;;;98.85;27.00;;;3.80;97.50;;;;;;5109212;28;20032;-58
2024/01/11 06:51:47;;;;;;;96.85;26.40;;;3.80;97.50;;;;;;5108988;28;20032;-58
2024/01/11 06:54:13;;;;;;;124.03;29.83;;;3.80;97.60;;;;;;5104238;28;20025;-58
2024/01/11 06:56:38;;;;;;;123.05;29.85;;;3.80;97.60;;;;;;5086930;28;20020;-59
2024/01/11 06:59:04;;;;;;;109.70;30.55;;;3.80;97.60;;;;;;5086368;28;20025;-59
2024/01/11 07:01:29;;;;;;;123.22;29.83;;;3.80;97.60;;;;;;5086209;28;20170;-58
2024/01/11 07:03:55;;;;;;;133.98;29.88;;;3.90;97.60;;;;;;5085681;28;20028;-59
2024/01/11 07:06:21;;;;;;;96.00;27.23;;;3.80;97.50;;;;;;5085515;28;20025;-59
2024/01/11 07:08:47;;;;;;;108.95;28.05;;;3.80;97.40;;;;;;5101611;28;20092;-59
2024/01/11 07:11:12;;;;;;;98.88;30.08;;;3.80;97.30;;;;;;5086604;28;20089;-58
2024/01/11 07:13:38;;;;;;;193.85;31.83;;;3.80;97.30;;;;;;5103545;28;20021;-59
2024/01/11 07:16:05;;;;;;;101.57;27.38;;;3.80;97.60;;;;;;5105788;28;20024;-59
2024/01/11 07:18:31;;;;;;;89.53;26.83;;;3.80;97.70;;;;;;5102068;28;20085;-59
2024/01/11 07:20:57;;;;;;;82.03;25.52;;;3.80;97.50;;;;;;5097613;28;20032;-59
2024/01/11 07:23:22;;;;;;;95.53;26.20;;;3.80;97.40;;;;;;5108410;28;20039;-59
2024/01/11 07:25:48;;;;;;;95.40;25.48;;;4.00;97.30;;;;;;5108250;28;20035;-59
2024/01/11 07:28:14;;;;;;;79.00;25.02;;;3.80;97.20;;;;;;5108008;28;20080;-60
2024/01/11 07:30:39;;;;;;;82.50;24.75;;;3.80;97.20;;;;;;5106911;28;20032;-60
2024/01/11 07:33:05;;;;;;;76.25;24.85;;;3.70;97.20;;;;;;5108153;28;20028;-59
2024/01/11 07:35:31;;;;;;;68.82;24.77;;;3.70;97.20;;;;;;5106837;28;20452;-59
2024/01/11 07:37:57;;;;;;;86.80;25.50;;;3.80;97.20;;;;;;5106091;28;20031;-59
2024/01/11 07:40:23;;;;;;;69.47;24.88;;;3.80;97.20;;;;;;5107141;28;20072;-59
2024/01/11 07:42:49;;;;;;;74.65;24.00;;;3.80;97.20;;;;;;5098513;28;20566;-59
2024/01/11 07:45:15;;;;;;;70.53;24.70;;;3.80;97.10;;;;;;5087726;28;20029;-60
2024/01/11 07:47:40;;;;;;;61.92;23.60;;;3.80;97.10;;;;;;5087165;28;20089;-59
2024/01/11 07:50:09;;;;;;;67.35;24.20;;;3.80;97.00;;;;;;5095310;28;20039;-59
2024/01/11 07:52:35;;;;;;;66.93;25.42;;;3.80;97.00;;;;;;5107317;28;20024;-59
2024/01/11 07:55:06;;;;;;;55.97;23.77;;;3.70;97.00;;;;;;5107858;28;20473;-60
2024/01/11 07:57:34;;;;;;;63.17;23.63;;;3.80;97.00;;;;;;5087212;28;20021;-59
2024/01/11 08:00:00;;;;;;;52.83;23.55;;;3.80;97.00;;;;;;5087172;28;20024;-59
2024/01/11 08:02:26;;;;;;;58.55;23.98;;;3.80;97.00;;;;;;5095159;28;20535;-59
2024/01/11 08:04:52;;;;;;;50.78;23.33;;;3.80;97.00;;;;;;5113624;28;20028;-59
2024/01/11 08:07:17;;;;;;;55.40;21.33;;;3.80;97.00;;;;;;5090820;28;20481;-59
2024/01/11 08:09:45;;;;;;;65.60;23.30;;;3.80;97.00;;;;;;5086511;28;20469;-59
2024/01/11 08:12:14;;;;;;;55.58;22.42;;;3.80;97.00;;;;;;5086025;28;20469;-59
2024/01/11 08:14:41;;;;;;;59.95;24.35;;;3.70;97.00;;;;;;5068794;28;20055;-59
2024/01/11 08:17:08;;;;;;;58.75;24.15;;;3.90;97.30;;;;;;5086128;28;20020;-59
2024/01/11 08:19:33;;;;;;;59.05;23.70;;;3.90;97.10;;;;;;5102521;28;20026;-59
2024/01/11 08:21:59;;;;;;;59.22;22.83;;;3.70;97.00;;;;;;5084786;28;20120;-59
2024/01/11 08:24:25;;;;;;;67.05;23.40;;;3.70;97.00;;;;;;5100208;28;20028;-59
2024/01/11 08:26:51;;;;;;;59.65;22.98;;;3.70;97.00;;;;;;5084502;28;20078;-59
2024/01/11 08:29:18;;;;;;;52.38;23.70;;;3.70;97.00;;;;;;5084315;28;20040;-59
2024/01/11 08:31:44;;;;;;;62.03;24.02;;;3.70;97.00;;;;;;5084230;28;20028;-59
2024/01/11 08:34:10;;;;;;;58.83;22.92;;;3.70;97.00;;;;;;5083970;28;20109;-60
2024/01/11 08:36:36;;;;;;;64.00;23.33;;;3.70;97.00;;;;;;5082988;28;20061;-60
2024/01/11 08:39:05;;;;;;;60.70;23.50;;;3.70;97.00;;;;;;5083294;28;20036;-60
2024/01/11 08:41:30;;;;;;;62.05;23.45;;;3.70;96.90;;;;;;5087475;28;20575;-59
2024/01/11 08:43:56;;;;;;;56.78;23.90;;;3.70;96.90;;;;;;5094357;28;20036;-59
2024/01/11 08:46:25;;;;;;;92.25;27.88;;;3.70;96.90;;;;;;5085950;28;20028;-60
2024/01/11 08:48:52;;;;;;;59.90;24.58;;;3.70;96.90;;;;;;5104222;28;20173;-60
2024/01/11 08:51:17;;;;;;;51.88;23.58;;;3.80;96.80;;;;;;5115996;28;20035;-59
2024/01/11 08:53:43;;;;;;;48.60;23.40;;;3.70;96.80;;;;;;5096765;28;20028;-59
2024/01/11 08:56:08;;;;;;;50.80;23.40;;;3.80;96.70;;;;;;5100465;28;20036;-59
2024/01/11 08:58:34;;;;;;;58.35;23.02;;;3.80;96.60;;;;;;5105499;28;20031;-59
2024/01/11 09:01:00;;;;;;;75.35;24.98;;;3.80;96.80;;;;;;5073136;28;20039;-59
2024/01/11 09:03:25;;;;;;;65.65;26.92;;;3.80;96.50;;;;;;5086553;28;20492;-60
2024/01/11 09:05:51;;;;;;;73.93;24.48;;;3.80;96.60;;;;;;5084190;28;20069;-59
2024/01/11 09:08:17;;;;;;;64.78;24.75;;;3.80;96.60;;;;;;5088550;28;20468;-60
2024/01/11 09:10:44;;;;;;;66.72;25.95;;;3.80;96.60;;;;;;5088500;28;20048;-59
2024/01/11 09:13:10;;;;;;;78.95;26.80;;;3.80;96.60;;;;;;5083790;28;20025;-59
2024/01/11 09:15:36;;;;;;;59.20;23.38;;;3.80;96.60;;;;;;5086498;28;20035;-60
2024/01/11 09:18:01;;;;;;;69.95;25.27;;;3.70;96.50;;;;;;5084088;28;20067;-60
2024/01/11 09:20:27;;;;;;;66.65;27.27;;;3.80;96.50;;;;;;5084698;28;20025;-59
2024/01/11 09:22:52;;;;;;;87.22;27.63;;;3.80;96.50;;;;;;5084892;28;20080;-60
2024/01/11 09:25:18;;;;;;;86.00;27.33;;;3.80;96.70;;;;;;5085335;28;20092;-59
2024/01/11 09:27:44;;;;;;;119.55;27.88;;;3.80;96.90;;;;;;5091873;28;20033;-59
2024/01/11 09:30:09;;;;;;;91.10;27.38;;;3.90;97.00;;;;;;5108706;28;20028;-60
2024/01/11 09:32:35;;;;;;;101.25;28.85;;;3.80;97.00;;;;;;5104559;28;20022;-59
2024/01/11 09:35:02;;;;;;;117.93;32.13;;;3.80;97.00;;;;;;5051484;28;1146202;-59
2024/01/11 09:37:28;;;;;;;95.80;29.50;;;3.90;97.00;;;;;;5097543;28;20060;-60
2024/01/11 09:39:53;;;;;;;97.43;28.63;;;3.90;97.20;;;;;;5104059;28;20028;-60
2024/01/11 09:42:19;;;;;;;81.75;26.20;;;3.80;97.10;;;;;;5096018;28;20024;-60
2024/01/11 09:44:45;;;;;;;81.82;26.48;;;3.80;96.90;;;;;;5125589;28;20024;-58
2024/01/11 09:47:11;;;;;;;99.25;29.00;;;3.90;96.80;;;;;;5125432;28;20395;-60
2024/01/11 09:49:39;;;;;;;91.38;26.80;;;3.90;96.80;;;;;;5104352;28;20043;-59
2024/01/11 09:52:08;;;;;;;103.85;29.38;;;3.90;96.80;;;;;;5115124;28;20031;-60
2024/01/11 09:54:33;;;;;;;85.47;29.38;;;3.90;96.80;;;;;;5090655;28;20074;-59
2024/01/11 09:57:00;;;;;;;121.63;29.42;;;3.90;96.70;;;;;;5109220;28;20016;-60
2024/01/11 09:59:26;;;;;;;88.90;28.80;;;3.90;96.70;;;;;;5090566;28;20516;-60
2024/01/11 10:01:52;;;;;;;82.00;27.05;;;4.10;96.60;;;;;;5123371;28;20067;-60
2024/01/11 10:04:18;;;;;;;90.60;28.40;;;3.90;96.40;;;;;;5107617;28;20032;-60
2024/01/11 10:06:43;;;;;;;81.45;27.13;;;4.10;96.40;;;;;;5107507;28;20531;-59
2024/01/11 10:09:09;;;;;;;87.38;26.70;;;3.90;96.40;;;;;;5123390;28;20040;-59
2024/01/11 10:11:35;;;;;;;99.70;28.63;;;3.90;96.40;;;;;;5108268;28;20028;-60
2024/01/11 10:14:01;;;;;;;104.68;30.83;;;4.00;96.40;;;;;;5125079;28;20031;-59
2024/01/11 10:16:29;;;;;;;93.55;28.92;;;4.00;96.40;;;;;;5098846;28;20032;-59
2024/01/11 10:18:55;;;;;;;99.82;30.80;;;4.10;96.40;;;;;;5089052;28;20029;-60
2024/01/11 10:21:21;;;;;;;102.25;30.98;;;4.00;96.30;;;;;;5089244;28;20024;-59
2024/01/11 10:23:47;;;;;;;91.72;30.08;;;4.00;96.30;;;;;;5089108;28;20031;-59
2024/01/11 10:26:15;;;;;;;95.35;30.67;;;4.00;96.40;;;;;;5092320;28;20051;-60
2024/01/11 10:28:46;;;;;;;133.35;29.85;;;4.00;96.40;;;;;;5109267;28;20028;-60
2024/01/11 10:31:15;;;;;;;71.50;29.30;;;4.00;96.40;;;;;;5109263;28;20480;-60
2024/01/11 10:33:40;;;;;;;74.47;29.23;;;4.00;96.50;;;;;;5104792;28;20098;-59
2024/01/11 10:36:07;;;;;;;95.35;29.42;;;4.00;96.50;;;;;;5102058;28;20486;-60
2024/01/11 10:38:35;;;;;;;113.13;31.83;;;4.00;96.50;;;;;;5105364;28;20019;-59
2024/01/11 10:41:01;;;;;;;88.78;29.20;;;4.00;96.50;;;;;;5087921;28;20129;-59
2024/01/11 10:43:26;;;;;;;97.57;31.33;;;4.00;96.50;;;;;;5097524;28;20483;-59
2024/01/11 10:45:56;;;;;;;92.93;30.45;;;4.00;96.50;;;;;;5091871;28;20036;-59
2024/01/11 10:48:23;;;;;;;103.65;30.30;;;4.00;96.40;;;;;;5088465;28;20032;-60
2024/01/11 10:50:51;;;;;;;60.30;28.05;;;4.00;96.50;;;;;;5088482;28;20037;-59
2024/01/11 10:53:47;;;;;;;68.57;29.38;;;4.00;96.40;;;;;;5087528;28;20027;-60
2024/01/11 10:56:18;;;;;;;75.73;29.27;;;4.00;96.40;;;;;;5086810;28;20036;-59
2024/01/11 10:58:44;;;;;;;71.53;28.85;;;4.00;96.40;;;;;;5088470;28;20020;-59
2024/01/11 11:01:11;;;;;;;77.82;29.92;;;4.10;96.50;;;;;;5093967;28;20038;-60
2024/01/11 11:03:37;;;;;;;75.95;29.52;;;4.10;96.40;;;;;;5111215;28;20028;-59
2024/01/11 11:06:05;;;;;;;83.75;26.92;;;4.10;96.20;;;;;;5100654;28;20369;-59
2024/01/11 11:08:31;;;;;;;86.55;30.00;;;4.00;96.10;;;;;;5088198;28;20039;-60
2024/01/11 11:10:57;;;;;;;83.57;28.70;;;4.10;96.10;;;;;;5094174;28;20040;-59
2024/01/11 11:13:23;;;;;;;88.35;28.17;;;4.10;96.10;;;;;;5087815;28;20103;-59
2024/01/11 11:15:49;;;;;;;77.00;29.23;;;4.10;96.20;;;;;;5088073;28;20040;-59
2024/01/11 11:18:15;;;;;;;79.97;28.50;;;4.00;96.10;;;;;;5103716;28;20035;-59
2024/01/11 11:20:44;;;;;;;82.75;31.30;;;4.00;96.10;;;;;;5107387;28;20027;-60
2024/01/11 11:23:10;;;;;;;103.88;30.33;;;4.10;96.20;;;;;;5106966;28;20024;-59
2024/01/11 11:25:36;;;;;;;88.85;29.45;;;4.00;96.20;;;;;;5106638;28;20058;-59
2024/01/11 11:28:06;;;;;;;87.88;30.33;;;4.10;96.20;;;;;;5107777;28;20024;-59
2024/01/11 11:30:32;;;;;;;86.28;29.73;;;4.10;96.10;;;;;;5107493;28;20515;-59
2024/01/11 11:32:58;;;;;;;119.75;33.45;;;4.10;96.00;;;;;;5089080;28;20020;-59
2024/01/11 11:35:24;;;;;;;81.03;31.38;;;4.10;96.00;;;;;;5087609;28;20048;-59
2024/01/11 11:37:59;;;;;;;93.22;30.90;;;4.10;95.90;;;;;;5087567;28;20021;-59
2024/01/11 11:40:39;;;;;;;104.22;32.35;;;4.10;95.80;;;;;;5109087;28;20047;-59
2024/01/11 11:43:06;;;;;;;102.78;31.38;;;4.10;95.80;;;;;;5087563;28;20040;-59
2024/01/11 11:45:31;;;;;;;100.18;28.77;;;4.10;95.80;;;;;;5087424;28;20024;-59
2024/01/11 11:47:57;;;;;;;100.15;32.92;;;4.10;95.90;;;;;;5085551;28;20028;-59
2024/01/11 11:50:23;;;;;;;99.43;31.77;;;4.10;96.00;;;;;;5102499;28;20033;-60
2024/01/11 11:52:54;;;;;;;92.85;32.45;;;4.10;96.20;;;;;;5087180;28;20055;-59
2024/01/11 11:55:20;;;;;;;92.20;32.90;;;4.10;96.20;;;;;;5088689;28;20035;-59
2024/01/11 11:57:46;;;;;;;92.30;32.67;;;4.10;96.20;;;;;;5087259;28;20035;-60
2024/01/11 12:00:12;;;;;;;82.20;31.23;;;4.10;96.10;;;;;;5102326;28;20046;-59
2024/01/11 12:02:37;;;;;;;90.80;31.13;;;4.10;96.10;;;;;;5102649;28;20028;-60
2024/01/11 12:05:04;;;;;;;121.38;33.90;;;4.10;96.00;;;;;;5123027;28;20040;-60
2024/01/11 12:07:29;;;;;;;111.55;32.88;;;4.20;96.00;;;;;;5120135;28;20032;-60
2024/01/11 12:09:55;;;;;;;80.15;31.33;;;4.20;95.90;;;;;;5107273;28;20388;-60
2024/01/11 12:12:21;;;;;;;80.32;30.67;;;4.20;95.80;;;;;;5099384;28;20059;-59
2024/01/11 12:14:49;;;;;;;96.65;32.65;;;4.10;96.00;;;;;;5112948;28;20106;-60
2024/01/11 12:17:16;;;;;;;92.45;31.13;;;4.20;95.70;;;;;;5095429;28;20169;-59
2024/01/11 12:19:42;;;;;;;102.10;31.35;;;4.30;95.60;;;;;;5117618;28;20030;-60
2024/01/11 12:22:07;;;;;;;96.88;31.63;;;4.20;95.60;;;;;;5123208;27;20099;-60
2024/01/11 12:24:33;;;;;;;97.15;33.08;;;4.20;95.60;;;;;;5122145;28;20085;-60
2024/01/11 12:27:00;;;;;;;90.30;31.05;;;4.20;95.60;;;;;;5117955;27;20024;-60
2024/01/11 12:29:25;;;;;;;105.78;32.45;;;4.20;95.60;;;;;;5110249;28;20038;-59